• Join FlightAware (Why Join?)
  • Login
  • US Flag 
05:56PM EDT


 

Airport Tracker/Info


-or-


 

Live Flight TrackerFlight Track Log ✈ N40007 ✈ 03-May-2013 ✈ KCDW - KLKP

Flight Track Log - Related Links

Times and Time Zones

All times are in EDT time to prevent confusion due to time zone crossing. See the N40007 flight status page for this flight to view local times or setup timezone preferences in your user account.

Time Position Orientation Groundspeed Altitude Reporting Facility
EDT Latitude Longitude Course Direction KTS MPH feet Rate Location/Type
04:55PM 40.8500 -74.3167 North 96 110 1,400  Level New York TRACON
04:56PM 40.8667 -74.3500 303° West 105 121 1,700 360 Climbing New York TRACON
04:56PM 40.8833 -74.3333 37° Northeast 106 122 2,100 420 Climbing New York TRACON
04:58PM 40.9041 -74.3056 45° Northeast  Level FlightAware Approximate
04:59PM 40.9500 -74.3333 45° Northeast 100 115 3,100  Level New York TRACON
05:00PM 40.8762 -74.2813 North  Level Estimated
05:00PM 40.9667 -74.3500 323° Northwest 97 112 3,500  Level New York TRACON
05:00PM 41.0000 -74.3500 360° North 118 136 3,500  Level New York TRACON
05:02PM 41.0667 -74.3500 360° North 122 140 3,600  Climbing New York TRACON
05:03PM 41.1000 -74.3500 360° North 122 140 3,600  Level New York TRACON
05:04PM 41.1333 -74.3667 339° North 124 143 3,600  Level New York TRACON
05:05PM 41.1667 -74.3667 360° North 132 152 3,600  Level New York TRACON
05:06PM 41.2000 -74.3667 360° North 128 147 3,600  Level New York TRACON
05:07PM 41.2333 -74.3667 360° North 122 140 3,700  Climbing New York TRACON
05:08PM 41.2667 -74.3667 360° North 119 137 3,600 -60 Descending New York TRACON
05:10PM 41.3000 -74.3667 360° North 117 135 3,600  Level New York TRACON
05:11PM 41.3500 -74.3667 360° North 126 145 3,700  Climbing New York TRACON
05:12PM 41.3833 -74.3500 21° North 131 151 3,600 -60 Descending New York TRACON
05:13PM 41.4167 -74.3500 360° North 123 142 3,600  Level New York TRACON
05:13PM 41.4333 -74.3500 360° North 123 142 3,600  Level New York TRACON
05:14PM 41.4667 -74.3500 360° North 121 139 3,600  Level New York TRACON
05:15PM 41.5000 -74.3333 21° North 115 132 3,600  Level New York TRACON
05:16PM 41.5333 -74.3333 360° North 119 137 3,600  Level New York TRACON
05:17PM 41.5667 -74.3333 360° North 114 131 3,600  Level New York TRACON
05:18PM 41.6000 -74.3333 360° North 113 130 3,600  Level New York TRACON
05:19PM 41.6333 -74.3333 360° North 118 136 3,600  Level New York TRACON
05:20PM 41.6667 -74.3167 20° North 127 146 3,600  Level New York TRACON
05:22PM 41.7167 -74.3167 360° North 125 144 3,600 180 Level New York TRACON
05:22PM 41.7333 -74.3167 360° North 108 124 4,000 360 Climbing New York TRACON
05:23PM 41.7667 -74.3167 360° North 101 116 4,300 360 Climbing New York TRACON
05:24PM 41.7833 -74.3167 360° North 98 113 4,800 480 Climbing New York TRACON
05:26PM 41.8167 -74.3167 360° North 90 104 5,400 300 Climbing New York TRACON
05:27PM 41.8500 -74.3167 360° North 106 122 5,500 60 Climbing New York TRACON
05:27PM 41.8667 -74.3167 360° North 114 131 5,600  Climbing New York TRACON
05:28PM 41.9000 -74.3000 20° North 111 128 5,600 60 Level New York TRACON
05:30PM 41.9333 -74.3000 360° North 115 132 5,800  Climbing New York TRACON
05:30PM 41.9536 -74.3019 356° North 116 133 5,700  Descending Boston Center
05:31PM 41.9953 -74.3006 North 123 142 5,800  Climbing Boston Center
05:32PM 42.0289 -74.2986 North 119 137 5,800  Level Boston Center
05:34PM 42.0706 -74.3000 359° North 121 139 5,800  Level Boston Center
05:35PM 42.1058 -74.3011 359° North 128 147 5,900  Climbing Boston Center
05:36PM 42.1456 -74.2967 North 129 148 5,900  Level Boston Center
05:37PM 42.1831 -74.2978 359° North 127 146 5,900 -60 Level Boston Center
05:38PM 42.2186 -74.2931 North 125 144 5,800 -120 Descending Boston Center
05:39PM 42.2561 -74.2831 11° North 137 158 5,700 -180 Descending Boston Center
05:40PM 42.2939 -74.2786 North 138 159 5,500 -180 Descending Boston Center
05:40PM 42.3189 -74.2764 North 131 151 5,400  Descending Boston Center
05:41PM 42.3564 -74.2747 North 131 151 5,500  Climbing Boston Center
05:42PM 42.3919 -74.2644 12° North 133 153 5,500 -60 Level Boston Center
05:44PM 42.4317 -74.2600 North 132 152 5,400 -60 Descending Boston Center
05:45PM 42.4692 -74.2583 North 126 145 5,400  Level Boston Center
05:46PM 42.5067 -74.2539 North 129 148 5,400  Level Boston Center
05:47PM 42.5464 -74.2467 North 133 153 5,400  Level Boston Center
05:48PM 42.5800 -74.2447 North 132 152 5,400  Level Boston Center
05:49PM 42.6133 -74.2400 North 129 148 5,400  Level Boston Center
05:50PM 42.6508 -74.2325 North 131 151 5,400  Level Boston Center
05:51PM 42.6864 -74.2308 North 127 146 5,400  Level Boston Center
05:52PM 42.7219 -74.2261 North 129 148 5,400  Level Boston Center
05:53PM 42.7617 -74.2189 North 134 154 5,400  Level Boston Center
05:54PM 42.7972 -74.2114 North 136 157 5,400  Level Boston Center
05:55PM 42.8347 -74.2069 North 134 154 5,400  Level Boston Center
05:56PM 42.8703 -74.2022 North 128 147 5,400  Level Boston Center
05:57PM 42.9058 -74.1975 North 133 153 5,400  Level Boston Center
05:58PM 42.9517 -74.1961 North 125 144 5,500  Climbing Boston Center
05:59PM 42.9892 -74.1914 North 119 137 5,500  Level Boston Center
06:00PM 43.0122 -74.1836 14° North 129 148 5,600 60 Climbing Boston Center
06:00PM 43.0247 -74.1867 350° North 126 145 5,600 60 Level Boston Center
06:01PM 43.0478 -74.1844 North 129 148 5,700  Climbing Boston Center
06:01PM 43.0603 -74.1822 North 127 146 5,600 -120 Descending Boston Center
06:02PM 43.0811 -74.1742 16° North 134 154 5,600  Level Boston Center
06:02PM 43.0958 -74.1775 351° North 128 147 5,600  Level Boston Center
06:03PM 43.1106 -74.1692 22° Northeast 133 153 5,600 -60 Level Boston Center
06:04PM 43.1522 -74.1619 North 128 147 5,500  Descending Boston Center
06:05PM 43.1878 -74.1544 North 128 147 5,600  Climbing Boston Center
06:06PM 43.2233 -74.1497 North 128 147 5,600 60 Level Boston Center
06:07PM 43.2483 -74.1447 North 123 142 5,800 120 Climbing Boston Center
06:08PM 43.3006 -74.1347 North 130 150 5,900 60 Climbing Boston Center
06:09PM 43.3300 -74.1297 North 125 144 6,000  Climbing Boston Center
06:10PM 43.3675 -74.1194 11° North 125 144 6,000  Level Boston Center
06:11PM 43.4031 -74.1147 North 125 144 6,000  Level Boston Center
06:12PM 43.4469 -74.1103 North 125 144 6,000  Level Boston Center
06:13PM 43.4803 -74.1025 10° North 125 144 6,100 60 Climbing Boston Center
06:14PM 43.5158 -74.0978 North 125 144 6,200  Climbing Boston Center
06:15PM 43.5533 -74.0931 North 125 144 6,200 -60 Level Boston Center
06:16PM 43.5889 -74.0856 North 125 144 6,100 -120 Descending Boston Center
06:17PM 43.6244 -74.0806 North 125 144 6,000 -60 Descending Boston Center
06:18PM 43.6600 -74.0703 12° North 125 144 6,000 -60 Level Boston Center
06:19PM 43.6914 -74.0625 10° North 125 144 5,900  Descending Boston Center
06:20PM 43.7269 -74.0547 North 125 144 6,000 60 Climbing Boston Center
06:21PM 43.7625 -74.0469 North 125 144 6,100 60 Climbing Boston Center
06:22PM 43.7897 -74.0392 12° North 125 144 6,200  Climbing Boston Center
06:23PM 43.8272 -74.0344 North 125 144 6,200 -1,380 Level Boston Center
06:24PM 43.8628 -74.0294 North 125 144 3,500 -1,380 Descending Boston Center
06:25PM 43.9003 -74.0219 North 125 144 3,500  Level Boston Center